createdAt,value
2019-03-16T00:00:31.587Z,36.4
2019-03-16T00:01:21.612Z,36.4
2019-03-16T00:02:10.864Z,36.4
2019-03-16T00:03:01.736Z,36.4
2019-03-16T00:03:51.220Z,36.4
2019-03-16T00:04:41.286Z,36.4
2019-03-16T00:05:30.904Z,36.4
2019-03-16T00:06:21.221Z,36.4
2019-03-16T00:07:10.705Z,36.4
2019-03-16T00:08:01.055Z,36.3
2019-03-16T00:08:51.590Z,36.3
2019-03-16T00:09:42.214Z,36.3
2019-03-16T00:10:31.978Z,36.3
2019-03-16T00:11:21.783Z,36.3
2019-03-16T00:12:11.635Z,36.3
2019-03-16T00:13:02.423Z,36.3
2019-03-16T00:13:52.032Z,36.3
2019-03-16T00:14:41.733Z,36.3
2019-03-16T00:15:31.813Z,36.3
2019-03-16T00:16:21.913Z,36.2
2019-03-16T00:17:23.925Z,36.2
2019-03-16T00:18:01.738Z,36.2
2019-03-16T00:18:52.010Z,36.1
2019-03-16T00:19:42.615Z,36.1
2019-03-16T00:20:32.969Z,36.1
2019-03-16T00:21:22.190Z,36.1
2019-03-16T00:22:12.275Z,36.1
2019-03-16T00:23:03.302Z,36.1
2019-03-16T00:23:52.382Z,36.1
2019-03-16T00:24:42.969Z,36.1
2019-03-16T00:25:32.878Z,36.1
2019-03-16T00:26:22.570Z,36.1
2019-03-16T00:27:13.175Z,36.1
2019-03-16T00:28:02.674Z,36.1
2019-03-16T00:28:52.752Z,36
2019-03-16T00:29:43.372Z,36
2019-03-16T00:30:32.662Z,36
2019-03-16T00:31:23.447Z,36
2019-03-16T00:32:19.031Z,35.9
2019-03-16T00:33:02.549Z,35.9
2019-03-16T00:33:53.430Z,35.9
2019-03-16T00:34:42.946Z,35.9
2019-03-16T00:35:32.752Z,35.9
2019-03-16T00:36:23.819Z,35.9
2019-03-16T00:37:13.594Z,35.9
2019-03-16T00:38:03.659Z,35.9
2019-03-16T00:38:53.989Z,35.9
2019-03-16T00:39:44.052Z,35.9
2019-03-16T00:40:33.882Z,35.9
2019-03-16T00:41:24.164Z,35.8
2019-03-16T00:42:14.311Z,35.8
2019-03-16T00:43:04.599Z,35.8
2019-03-16T00:43:54.066Z,35.8
2019-03-16T00:44:44.134Z,35.8
2019-03-16T00:45:33.921Z,35.8
2019-03-16T00:46:24.339Z,35.8
2019-03-16T00:47:13.753Z,35.8
2019-03-16T00:48:04.926Z,35.8
2019-03-16T00:48:54.708Z,35.7
2019-03-16T00:49:45.038Z,35.7
2019-03-16T00:50:34.548Z,35.7
2019-03-16T00:51:24.958Z,35.8
2019-03-16T00:52:15.023Z,35.7
2019-03-16T00:53:04.433Z,35.6
2019-03-16T00:53:54.516Z,35.7
2019-03-16T00:54:44.563Z,35.6
2019-03-16T00:55:34.613Z,35.6
2019-03-16T00:56:24.968Z,35.6
2019-03-16T00:57:15.036Z,35.6
2019-03-16T00:58:04.780Z,35.6
2019-03-16T00:58:54.836Z,35.6
2019-03-16T00:59:45.525Z,35.6
2019-03-16T01:00:35.330Z,35.5
2019-03-16T01:01:25.571Z,35.6
2019-03-16T01:02:32.658Z,35.6
2019-03-16T01:03:05.428Z,35.5
2019-03-16T01:03:56.058Z,35.5
2019-03-16T01:04:45.832Z,35.5
2019-03-16T01:05:35.658Z,35.5
2019-03-16T01:06:24.845Z,35.4
2019-03-16T01:07:14.890Z,35.5
2019-03-16T01:08:05.542Z,35.4
2019-03-16T01:08:55.585Z,35.4
2019-03-16T01:09:48.732Z,35.4
2019-03-16T01:10:35.988Z,35.4
2019-03-16T01:11:26.307Z,35.4
2019-03-16T01:12:16.445Z,35.4
2019-03-16T01:13:05.862Z,35.4
2019-03-16T01:13:55.643Z,35.3
2019-03-16T01:14:46.533Z,35.3
2019-03-16T01:15:36.370Z,35.4
2019-03-16T01:16:26.690Z,35.3
2019-03-16T01:17:16.410Z,35.4
2019-03-16T01:18:06.772Z,35.3
2019-03-16T01:18:56.525Z,35.3
2019-03-16T01:19:46.939Z,35.3
2019-03-16T01:20:36.645Z,35.3
2019-03-16T01:21:27.312Z,35.2
2019-03-16T01:22:16.799Z,35.3
2019-03-16T01:23:06.581Z,35.2
2019-03-16T01:23:57.189Z,35.2
2019-03-16T01:24:46.397Z,35.2
2019-03-16T01:25:37.299Z,35.2
2019-03-16T01:26:27.169Z,35.2
2019-03-16T01:27:17.684Z,35.1
2019-03-16T01:28:07.481Z,35.1
2019-03-16T01:28:57.274Z,35.1
2019-03-16T01:29:46.759Z,35.2
2019-03-16T01:30:36.646Z,35.1
2019-03-16T01:31:27.726Z,35.1
2019-03-16T01:32:17.763Z,35.1
2019-03-16T01:33:08.123Z,35.1
2019-03-16T01:33:57.606Z,35.1
2019-03-16T01:34:49.218Z,35.1
2019-03-16T01:35:38.023Z,35.1
2019-03-16T01:36:28.344Z,35.1
2019-03-16T01:37:16.474Z,35.1
2019-03-16T01:38:07.921Z,35.1
2019-03-16T01:38:57.681Z,35.1
2019-03-16T01:39:48.025Z,35.1
2019-03-16T01:40:37.965Z,35.1
2019-03-16T01:41:27.678Z,35.1
2019-03-16T01:42:18.010Z,35.1
2019-03-16T01:43:08.171Z,35
2019-03-16T01:43:57.303Z,35
2019-03-16T01:44:48.113Z,35
2019-03-16T01:45:38.440Z,35
2019-03-16T01:46:28.566Z,35
2019-03-16T01:47:18.843Z,35
2019-03-16T01:48:08.640Z,34.9
2019-03-16T01:48:58.670Z,34.9
2019-03-16T01:49:48.729Z,34.9
2019-03-16T01:50:39.186Z,34.9
2019-03-16T01:51:28.591Z,34.9
2019-03-16T01:52:18.440Z,34.9
2019-03-16T01:53:08.691Z,34.8
2019-03-16T01:53:58.481Z,34.8
2019-03-16T01:54:49.364Z,34.8
2019-03-16T01:55:39.499Z,34.8
2019-03-16T01:56:29.772Z,34.8
2019-03-16T01:57:19.367Z,34.8
2019-03-16T01:58:09.610Z,34.8
2019-03-16T01:58:59.389Z,34.8
2019-03-16T01:59:49.465Z,34.8
2019-03-16T02:00:39.767Z,34.8
2019-03-16T02:01:29.875Z,34.8
2019-03-16T02:02:19.077Z,34.7
2019-03-16T02:03:09.685Z,34.8
2019-03-16T02:03:59.825Z,34.7
2019-03-16T02:04:50.154Z,34.7
2019-03-16T02:05:38.802Z,34.7
2019-03-16T02:06:30.197Z,34.7
2019-03-16T02:07:20.297Z,34.7
2019-03-16T02:08:10.119Z,34.7
2019-03-16T02:08:59.342Z,34.6
2019-03-16T02:09:49.659Z,34.6
2019-03-16T02:10:39.929Z,34.6
2019-03-16T02:11:30.258Z,34.7
2019-03-16T02:12:20.324Z,34.6
2019-03-16T02:13:10.134Z,34.6
2019-03-16T02:14:00.723Z,34.6
2019-03-16T02:14:50.518Z,34.6
2019-03-16T02:15:40.586Z,34.6
2019-03-16T02:16:30.651Z,34.6
2019-03-16T02:17:20.406Z,34.6
2019-03-16T02:18:09.361Z,34.6
2019-03-16T02:19:01.074Z,34.6
2019-03-16T02:19:51.122Z,34.5
2019-03-16T02:20:40.640Z,34.5
2019-03-16T02:21:31.271Z,34.5
2019-03-16T02:22:21.093Z,34.5
2019-03-16T02:23:11.120Z,34.4
2019-03-16T02:24:00.963Z,34.5
2019-03-16T02:24:51.838Z,34.5
2019-03-16T02:25:41.318Z,34.4
2019-03-16T02:26:31.596Z,34.4
2019-03-16T02:27:21.948Z,34.4
2019-03-16T02:28:11.720Z,34.4
2019-03-16T02:29:02.060Z,34.4
2019-03-16T02:29:51.917Z,34.4
2019-03-16T02:30:41.137Z,34.4
2019-03-16T02:31:32.017Z,34.4
2019-03-16T02:32:21.091Z,34.4
2019-03-16T02:33:19.220Z,34.4
2019-03-16T02:34:01.903Z,34.4
2019-03-16T02:34:52.238Z,34.4
2019-03-16T02:35:41.810Z,34.4
2019-03-16T02:36:31.284Z,34.4
2019-03-16T02:37:22.168Z,34.3
2019-03-16T02:38:11.936Z,34.3
2019-03-16T02:39:02.598Z,34.3
2019-03-16T02:39:51.812Z,34.3
2019-03-16T02:40:42.537Z,34.3
2019-03-16T02:41:32.773Z,34.3
2019-03-16T02:42:22.988Z,34.3
2019-03-16T02:43:12.565Z,34.3
2019-03-16T02:44:02.618Z,34.3
2019-03-16T02:44:52.563Z,34.3
2019-03-16T02:45:42.630Z,34.3
2019-03-16T02:46:33.366Z,34.3
2019-03-16T02:47:22.686Z,34.3
2019-03-16T02:48:12.525Z,34.3
2019-03-16T02:49:02.513Z,34.2
2019-03-16T02:49:53.052Z,34.3
2019-03-16T02:50:42.914Z,34.2
2019-03-16T02:51:32.939Z,34.3
2019-03-16T02:52:23.322Z,34.2
2019-03-16T02:53:13.489Z,34.2
2019-03-16T02:54:02.842Z,34.2
2019-03-16T02:54:53.534Z,34.2
2019-03-16T02:55:43.147Z,34.1
2019-03-16T02:56:33.799Z,34.1
2019-03-16T02:57:23.544Z,34.1
2019-03-16T02:58:13.665Z,34.1
2019-03-16T02:59:03.780Z,34.1
2019-03-16T02:59:54.185Z,34.1
2019-03-16T03:00:44.069Z,34.1
2019-03-16T03:01:33.838Z,34.1
2019-03-16T03:02:24.579Z,34.1
2019-03-16T03:03:32.971Z,34.1
2019-03-16T03:04:03.677Z,34.1
2019-03-16T03:07:36.306Z,34
2019-03-16T03:08:26.036Z,34
2019-03-16T03:09:15.804Z,34
2019-03-16T03:10:06.549Z,34.1
2019-03-16T03:10:56.501Z,34
2019-03-16T03:11:45.982Z,34
2019-03-16T03:12:36.629Z,34
2019-03-16T03:13:26.138Z,34
2019-03-16T03:14:16.937Z,34
2019-03-16T03:15:06.773Z,34
2019-03-16T03:15:56.834Z,33.9
2019-03-16T03:16:46.901Z,33.9
2019-03-16T03:17:36.723Z,33.9
2019-03-16T03:18:26.451Z,33.9
2019-03-16T03:19:16.841Z,33.9
2019-03-16T03:20:06.648Z,33.9
2019-03-16T03:20:57.091Z,33.9
2019-03-16T03:21:47.270Z,33.9
2019-03-16T03:22:37.506Z,33.9
2019-03-16T03:23:27.365Z,33.9
2019-03-16T03:24:16.868Z,33.9
2019-03-16T03:25:06.958Z,33.9
2019-03-16T03:25:57.368Z,33.9
2019-03-16T03:26:47.209Z,33.9
2019-03-16T03:27:37.256Z,33.9
2019-03-16T03:28:27.742Z,33.9
2019-03-16T03:29:17.738Z,33.8
2019-03-16T03:30:08.375Z,33.9
2019-03-16T03:30:57.791Z,33.8
2019-03-16T03:31:47.595Z,33.8
2019-03-16T03:32:38.727Z,33.8
2019-03-16T03:33:56.050Z,33.8
2019-03-16T03:34:17.943Z,33.8
2019-03-16T03:35:08.293Z,33.8
2019-03-16T03:35:57.957Z,33.8
2019-03-16T03:36:47.878Z,33.8
2019-03-16T03:37:37.555Z,33.8
2019-03-16T03:38:27.848Z,33.8
2019-03-16T03:39:17.377Z,33.8
2019-03-16T03:40:08.285Z,33.8
2019-03-16T03:41:03.836Z,33.8
2019-03-16T03:41:48.432Z,33.8
2019-03-16T03:42:38.853Z,33.8
2019-03-16T03:43:28.527Z,33.7
2019-03-16T03:44:18.934Z,33.7
2019-03-16T03:45:08.436Z,33.7
2019-03-16T03:45:58.934Z,33.7
2019-03-16T03:46:48.456Z,33.7
2019-03-16T03:47:38.837Z,33.7
2019-03-16T03:48:28.958Z,33.7
2019-03-16T03:49:19.021Z,33.6
2019-03-16T03:50:09.024Z,33.6
2019-03-16T03:50:59.106Z,33.6
2019-03-16T03:51:49.086Z,33.6
2019-03-16T03:52:38.878Z,33.6
2019-03-16T03:53:29.187Z,33.6
2019-03-16T03:54:19.040Z,33.6
2019-03-16T03:55:09.415Z,33.6
2019-03-16T03:55:59.535Z,33.6
2019-03-16T03:56:49.438Z,33.6
2019-03-16T03:57:39.617Z,33.6
2019-03-16T03:58:29.314Z,33.6
2019-03-16T03:59:19.781Z,33.6
2019-03-16T04:00:09.436Z,33.6
2019-03-16T04:00:59.665Z,33.5
2019-03-16T04:01:49.777Z,33.6
2019-03-16T04:02:39.923Z,33.6
2019-03-16T04:03:29.936Z,33.5
2019-03-16T04:04:21.811Z,33.5
2019-03-16T04:05:09.995Z,33.5
2019-03-16T04:05:59.239Z,33.5
2019-03-16T04:06:50.160Z,33.5
2019-03-16T04:07:40.206Z,33.5
2019-03-16T04:08:30.305Z,33.5
2019-03-16T04:09:20.377Z,33.5
2019-03-16T04:10:10.721Z,33.4
2019-03-16T04:11:00.161Z,33.4
2019-03-16T04:11:50.819Z,33.4
2019-03-16T04:12:40.760Z,33.4
2019-03-16T04:13:30.330Z,33.4
2019-03-16T04:14:20.523Z,33.4
2019-03-16T04:15:10.481Z,33.4
2019-03-16T04:16:00.552Z,33.4
2019-03-16T04:16:50.898Z,33.4
2019-03-16T04:17:40.719Z,33.4
2019-03-16T04:18:30.946Z,33.4
2019-03-16T04:19:21.295Z,33.4
2019-03-16T04:20:10.808Z,33.4
2019-03-16T04:21:00.864Z,33.4
2019-03-16T04:21:51.336Z,33.4
2019-03-16T04:22:41.343Z,33.4
2019-03-16T04:23:31.294Z,33.4
2019-03-16T04:24:21.221Z,33.3
2019-03-16T04:25:25.881Z,33.3
2019-03-16T04:26:01.754Z,33.3
2019-03-16T04:26:51.265Z,33.3
2019-03-16T04:27:41.721Z,33.3
2019-03-16T04:28:31.500Z,33.3
2019-03-16T04:29:21.445Z,33.3
2019-03-16T04:30:11.807Z,33.3
2019-03-16T04:31:01.683Z,33.3
2019-03-16T04:31:51.683Z,33.3
2019-03-16T04:32:41.964Z,33.3
2019-03-16T04:33:32.354Z,33.3
2019-03-16T04:34:34.946Z,33.3
2019-03-16T04:35:11.834Z,33.3
2019-03-16T04:36:02.427Z,33.3
2019-03-16T04:36:52.187Z,33.3
2019-03-16T04:37:42.424Z,33.2
2019-03-16T04:38:32.074Z,33.3
2019-03-16T04:39:22.733Z,33.2
2019-03-16T04:40:12.785Z,33.3
2019-03-16T04:41:02.189Z,33.3
2019-03-16T04:41:52.012Z,33.2
2019-03-16T04:42:42.205Z,33.2
2019-03-16T04:43:31.059Z,33.1
2019-03-16T04:44:22.034Z,33.2
2019-03-16T04:45:12.564Z,33.2
2019-03-16T04:46:02.327Z,33.2
2019-03-16T04:46:52.119Z,33.2
2019-03-16T04:47:42.979Z,33.2
2019-03-16T04:48:32.726Z,33.2
2019-03-16T04:49:22.237Z,33.2
2019-03-16T04:50:12.859Z,33.1
2019-03-16T04:51:03.266Z,33.1
2019-03-16T04:51:53.240Z,33.1
2019-03-16T04:52:43.553Z,33.1
2019-03-16T04:53:33.373Z,33.1
2019-03-16T04:54:23.429Z,33.1
2019-03-16T04:55:13.074Z,33.2
2019-03-16T04:56:03.805Z,33.1
2019-03-16T04:56:53.899Z,33.1
2019-03-16T04:57:43.439Z,33.1
2019-03-16T04:58:33.832Z,33.1
2019-03-16T04:59:23.629Z,33.1
2019-03-16T05:00:14.276Z,33.1
2019-03-16T05:01:04.381Z,33.1
2019-03-16T05:01:53.393Z,33.1
2019-03-16T05:02:44.438Z,33.1
2019-03-16T05:03:34.158Z,33.1
2019-03-16T05:04:24.165Z,33.1
2019-03-16T05:05:13.713Z,33
2019-03-16T05:06:03.481Z,33
2019-03-16T05:06:54.600Z,33
2019-03-16T05:07:44.650Z,33
2019-03-16T05:08:34.488Z,33
2019-03-16T05:09:24.473Z,33
2019-03-16T05:10:14.828Z,33
2019-03-16T05:11:05.075Z,33
2019-03-16T05:11:54.910Z,32.9
2019-03-16T05:12:44.767Z,33
2019-03-16T05:13:34.488Z,33
2019-03-16T05:14:24.530Z,32.9
2019-03-16T05:15:14.402Z,32.9
2019-03-16T05:16:04.671Z,32.9
2019-03-16T05:16:54.998Z,32.9
2019-03-16T05:17:45.348Z,32.9
2019-03-16T05:18:35.380Z,32.9
2019-03-16T05:19:24.962Z,32.9
2019-03-16T05:20:14.977Z,32.9
2019-03-16T05:21:05.400Z,32.9
2019-03-16T05:21:55.618Z,32.9
2019-03-16T05:22:45.431Z,32.9
2019-03-16T05:23:35.782Z,32.9
2019-03-16T05:24:25.802Z,32.8
2019-03-16T05:25:15.606Z,32.9
2019-03-16T05:26:05.146Z,32.9
2019-03-16T05:26:56.047Z,32.9
2019-03-16T05:27:44.749Z,32.9
2019-03-16T05:28:36.097Z,32.8
2019-03-16T05:29:25.624Z,32.8
2019-03-16T05:30:15.917Z,32.8
2019-03-16T05:31:06.011Z,32.8
2019-03-16T05:31:56.772Z,32.8
2019-03-16T05:32:46.124Z,32.8
2019-03-16T05:33:36.460Z,32.8
2019-03-16T05:34:26.049Z,32.7
2019-03-16T05:35:16.317Z,32.7
2019-03-16T05:36:06.142Z,32.6
2019-03-16T05:36:59.603Z,32.6
2019-03-16T05:37:46.517Z,32.6
2019-03-16T05:38:36.552Z,32.6
2019-03-16T05:39:26.309Z,32.6
2019-03-16T05:40:16.366Z,32.6
2019-03-16T05:41:06.959Z,32.6
2019-03-16T05:41:56.819Z,32.6
2019-03-16T05:42:47.116Z,32.6
2019-03-16T05:43:37.217Z,32.5
2019-03-16T05:44:26.115Z,32.5
2019-03-16T05:45:17.139Z,32.5
2019-03-16T05:46:07.062Z,32.5
2019-03-16T05:46:57.388Z,32.5
2019-03-16T05:47:47.443Z,32.4
2019-03-16T05:48:37.236Z,32.4
2019-03-16T05:49:27.336Z,32.5
2019-03-16T05:50:17.636Z,32.4
2019-03-16T05:51:07.695Z,32.4
2019-03-16T05:51:57.778Z,32.4
2019-03-16T05:52:47.258Z,32.4
2019-03-16T05:53:37.877Z,32.3
2019-03-16T05:54:27.976Z,32.4
2019-03-16T05:55:18.201Z,32.4
2019-03-16T05:56:08.046Z,32.4
2019-03-16T05:56:58.122Z,32.4
2019-03-16T05:57:48.174Z,32.4
2019-03-16T05:58:37.718Z,32.3
2019-03-16T05:59:27.736Z,32.3
2019-03-16T06:00:18.380Z,32.3
2019-03-16T06:01:08.393Z,32.3
2019-03-16T06:01:58.255Z,32.3
2019-03-16T06:02:48.246Z,32.3
2019-03-16T06:03:38.028Z,32.3
2019-03-16T06:05:34.640Z,32.3
2019-03-16T06:06:28.688Z,32.3
2019-03-16T06:07:15.722Z,32.3
2019-03-16T06:08:06.008Z,32.3
2019-03-16T06:08:55.700Z,32.2
2019-03-16T06:09:45.767Z,32.2
2019-03-16T06:10:35.000Z,32.2
2019-03-16T06:11:25.884Z,32.2
2019-03-16T06:12:16.007Z,32.2
2019-03-16T06:13:06.569Z,32.2
2019-03-16T06:13:56.047Z,32.2
2019-03-16T06:14:46.679Z,32.1
2019-03-16T06:15:35.892Z,32.2
2019-03-16T06:16:26.497Z,32.1
2019-03-16T06:17:15.722Z,32.1
2019-03-16T06:18:06.899Z,32.1
2019-03-16T06:18:56.385Z,32.1
2019-03-16T06:19:46.473Z,32.1
2019-03-16T06:20:36.511Z,32.1
2019-03-16T06:21:27.125Z,32.1
2019-03-16T06:22:16.367Z,32
2019-03-16T06:23:07.253Z,32
2019-03-16T06:23:56.764Z,31.9
2019-03-16T06:24:46.531Z,31.9
2019-03-16T06:25:37.558Z,31.8
2019-03-16T06:26:26.656Z,31.8
2019-03-16T06:27:16.693Z,31.8
2019-03-16T06:28:07.316Z,31.6
2019-03-16T06:28:57.387Z,31.6
2019-03-16T06:29:47.743Z,31.6
2019-03-16T06:30:37.576Z,31.5
2019-03-16T06:31:27.148Z,31.4
2019-03-16T06:32:17.448Z,31.4
2019-03-16T06:33:07.136Z,31.4
2019-03-16T06:33:57.446Z,31.4
2019-03-16T06:34:47.523Z,31.4
2019-03-16T06:35:38.120Z,31.3
2019-03-16T06:36:27.988Z,31.3
2019-03-16T06:37:17.990Z,31.3
2019-03-16T06:38:08.063Z,31.3
2019-03-16T06:38:57.627Z,31.2
2019-03-16T06:39:47.608Z,31.2
2019-03-16T06:40:37.739Z,31.2
2019-03-16T06:41:27.725Z,31.1
2019-03-16T06:42:18.590Z,31.1
2019-03-16T06:43:08.400Z,31
2019-03-16T06:43:58.200Z,30.9
2019-03-16T06:44:48.311Z,30.9
2019-03-16T06:45:38.265Z,30.9
2019-03-16T06:46:28.765Z,30.8
2019-03-16T06:47:18.127Z,30.7
2019-03-16T06:48:08.000Z,30.7
2019-03-16T06:48:59.128Z,30.6
2019-03-16T06:49:48.375Z,30.6
2019-03-16T06:50:38.899Z,30.5
2019-03-16T06:51:28.989Z,30.4
2019-03-16T06:52:18.747Z,30.4
2019-03-16T06:53:08.252Z,34.4
2019-03-16T06:53:58.317Z,41.3
2019-03-16T06:54:48.942Z,43.4
2019-03-16T06:55:39.114Z,44.1
2019-03-16T06:56:29.412Z,44.3
2019-03-16T06:57:18.380Z,44.2
2019-03-16T06:58:09.432Z,44
2019-03-16T06:59:02.869Z,45.9
2019-03-16T06:59:49.105Z,47.1
2019-03-16T07:00:39.067Z,47.8
2019-03-16T07:01:29.726Z,48.3
2019-03-16T07:02:19.997Z,48.2
2019-03-16T07:03:09.801Z,48
2019-03-16T07:05:43.318Z,46.8
2019-03-16T07:06:25.457Z,46.1
2019-03-16T07:07:15.591Z,45.6
2019-03-16T07:08:05.589Z,45.1
2019-03-16T07:08:55.663Z,44.6
2019-03-16T07:09:45.514Z,44.1
2019-03-16T07:10:35.766Z,43.6
2019-03-16T07:11:25.332Z,43.1
2019-03-16T07:12:15.952Z,42.7
2019-03-16T07:13:05.971Z,42.3
2019-03-16T07:13:55.834Z,42.1
2019-03-16T07:14:46.321Z,45.3
2019-03-16T07:15:36.407Z,46.1
2019-03-16T07:16:25.949Z,47.1
2019-03-16T07:17:15.946Z,48.4
2019-03-16T07:18:06.312Z,49.1
2019-03-16T07:19:04.220Z,48.9
2019-03-16T07:19:46.777Z,47.5
2019-03-16T07:20:36.758Z,46.3
2019-03-16T07:21:26.816Z,45.2
2019-03-16T07:22:17.128Z,44.4
2019-03-16T07:23:06.356Z,43.9
2019-03-16T07:23:56.429Z,43.5
2019-03-16T07:24:47.381Z,43.1
2019-03-16T07:25:36.811Z,42.8
2019-03-16T07:26:26.853Z,42.4
2019-03-16T07:27:31.218Z,43.1
2019-03-16T07:28:07.358Z,46
2019-03-16T07:28:57.325Z,46.3
2019-03-16T07:29:46.827Z,47
2019-03-16T07:30:40.436Z,47.3
2019-03-16T07:31:27.270Z,47.1
2019-03-16T07:32:17.315Z,46.3
2019-03-16T07:33:07.105Z,45.2
2019-03-16T07:33:57.381Z,44.4
2019-03-16T07:34:47.538Z,43.8
2019-03-16T07:35:37.820Z,43.3
2019-03-16T07:36:27.975Z,42.9
2019-03-16T07:37:17.652Z,42.6
2019-03-16T07:38:07.972Z,42.3
2019-03-16T07:38:57.290Z,41.9
2019-03-16T07:39:47.534Z,41.6
2019-03-16T07:40:38.527Z,41.3
2019-03-16T07:41:27.960Z,43.9
2019-03-16T07:42:18.262Z,45.4
2019-03-16T07:43:08.610Z,46.2
2019-03-16T07:43:58.377Z,47.3
2019-03-16T07:44:47.974Z,48.2
2019-03-16T07:45:38.812Z,48.8
2019-03-16T07:46:28.047Z,48.9
2019-03-16T07:47:18.349Z,48.9
2019-03-16T07:48:08.502Z,48.7
2019-03-16T07:48:58.777Z,48.6
2019-03-16T07:49:48.542Z,48.6
2019-03-16T07:50:38.901Z,48.6
2019-03-16T07:51:28.636Z,48.8
2019-03-16T07:52:18.145Z,49.1
2019-03-16T07:53:08.491Z,49.5
2019-03-16T07:53:58.817Z,49.8
2019-03-16T07:54:48.896Z,49.8
2019-03-16T07:55:42.611Z,49.9
2019-03-16T07:56:29.059Z,49.9
2019-03-16T07:57:19.094Z,50.1
2019-03-16T07:58:08.886Z,50.2
2019-03-16T07:58:59.174Z,50.3
2019-03-16T07:59:48.949Z,50.3
2019-03-16T08:00:39.006Z,50.3
2019-03-16T08:01:29.340Z,50.4
2019-03-16T08:02:19.734Z,50.4
2019-03-16T08:03:08.904Z,50.4
2019-03-16T08:03:58.706Z,50.4
2019-03-16T08:04:49.403Z,50.4
2019-03-16T08:05:39.481Z,50.5
2019-03-16T08:06:29.543Z,50.6
2019-03-16T08:07:19.646Z,50.8
2019-03-16T08:08:08.788Z,50.9
2019-03-16T08:09:00.043Z,51
2019-03-16T08:09:49.471Z,51.2
2019-03-16T08:10:39.759Z,51.4
2019-03-16T08:11:29.575Z,51.6
2019-03-16T08:12:19.930Z,51.8
2019-03-16T08:13:59.760Z,52.1
2019-03-16T08:14:50.008Z,52.3
2019-03-16T08:15:40.146Z,52.4
2019-03-16T08:16:30.130Z,52.6
2019-03-16T08:17:20.185Z,52.7
2019-03-16T08:18:12.618Z,52.9
2019-03-16T08:19:00.888Z,53
2019-03-16T08:19:50.718Z,53.2
2019-03-16T08:20:41.248Z,53.4
2019-03-16T08:21:31.425Z,53.5
2019-03-16T08:22:20.823Z,53.6
2019-03-16T08:23:11.150Z,53.7
2019-03-16T08:24:01.289Z,53.9
2019-03-16T08:24:51.522Z,54
2019-03-16T08:25:40.515Z,54.1
2019-03-16T08:26:30.564Z,54.3
2019-03-16T08:27:21.441Z,54.4
2019-03-16T08:28:11.767Z,54.5
2019-03-16T08:29:04.922Z,54.6
2019-03-16T08:29:51.612Z,54.8
2019-03-16T08:30:41.720Z,54.9
2019-03-16T08:31:31.742Z,55
2019-03-16T08:32:21.236Z,55.1
2019-03-16T08:33:11.316Z,55.3
2019-03-16T08:34:01.905Z,55.3
2019-03-16T08:34:51.132Z,55.4
2019-03-16T08:35:42.344Z,55.5
2019-03-16T08:36:31.884Z,55.6
2019-03-16T08:37:21.606Z,55.7
2019-03-16T08:38:11.947Z,55.8
2019-03-16T08:39:02.281Z,55.9
2019-03-16T08:39:52.376Z,56
2019-03-16T08:40:41.984Z,56.1
2019-03-16T08:41:32.454Z,56.2
2019-03-16T08:42:22.859Z,56.3
2019-03-16T08:43:11.063Z,56.4
2019-03-16T08:44:02.249Z,56.4
2019-03-16T08:44:52.199Z,56.6
2019-03-16T08:45:41.516Z,56.7
2019-03-16T08:46:30.937Z,56.8
2019-03-16T08:47:21.688Z,56.9
2019-03-16T08:48:26.801Z,57
2019-03-16T08:49:02.149Z,57.1
2019-03-16T08:49:52.513Z,57.1
2019-03-16T08:50:43.091Z,57.2
2019-03-16T08:51:32.596Z,57.3
2019-03-16T08:52:22.978Z,57.4
2019-03-16T08:53:13.033Z,57.4
2019-03-16T08:54:03.078Z,57.5
2019-03-16T08:54:52.843Z,57.6
2019-03-16T08:55:43.188Z,57.6
2019-03-16T08:56:33.239Z,57.7
2019-03-16T08:59:03.530Z,57.8
2019-03-16T08:59:53.503Z,57.9
2019-03-16T09:00:43.804Z,58.1
2019-03-16T09:01:33.593Z,58.1
2019-03-16T09:02:23.370Z,58.2
2019-03-16T09:03:13.702Z,58.3
2019-03-16T09:04:03.762Z,58.3
2019-03-16T09:04:53.273Z,58.4
2019-03-16T09:05:44.215Z,58.4
2019-03-16T09:06:34.030Z,58.4
2019-03-16T09:08:14.700Z,58.7
2019-03-16T09:09:03.925Z,58.8
2019-03-16T09:09:53.897Z,58.8
2019-03-16T09:10:43.960Z,58.9
2019-03-16T09:11:34.297Z,59
2019-03-16T09:12:24.732Z,59.1
2019-03-16T09:13:14.147Z,59.1
2019-03-16T09:14:04.207Z,59.2
2019-03-16T09:14:54.864Z,59.3
2019-03-16T09:15:44.662Z,59.3
2019-03-16T09:16:34.488Z,59.3
2019-03-16T09:17:24.727Z,59.3
2019-03-16T09:18:14.762Z,59.4
2019-03-16T09:19:05.414Z,59.4
2019-03-16T09:19:54.684Z,59.6
2019-03-16T09:20:45.236Z,59.6
2019-03-16T09:21:35.294Z,59.8
2019-03-16T09:22:25.629Z,59.8
2019-03-16T09:23:14.892Z,59.8
2019-03-16T09:24:04.679Z,59.9
2019-03-16T09:24:55.313Z,60
2019-03-16T09:25:45.115Z,60.1
2019-03-16T09:26:35.646Z,60.1
2019-03-16T09:27:36.760Z,60.2
2019-03-16T09:28:23.537Z,60.3
2019-03-16T09:29:18.820Z,60.3
2019-03-16T09:29:55.853Z,60.4
2019-03-16T09:30:45.099Z,60.4
2019-03-16T09:31:36.012Z,60.5
2019-03-16T09:32:25.487Z,60.6
2019-03-16T09:33:17.169Z,60.6
2019-03-16T09:34:05.703Z,60.6
2019-03-16T09:34:55.561Z,60.8
2019-03-16T09:35:45.834Z,60.8
2019-03-16T09:36:35.884Z,60.8
2019-03-16T09:37:26.667Z,60.8
2019-03-16T09:38:16.209Z,60.9
2019-03-16T09:39:05.962Z,60.9
2019-03-16T09:39:56.592Z,60.9
2019-03-16T09:40:46.431Z,61
2019-03-16T09:41:36.511Z,61
2019-03-16T09:42:26.005Z,61.1
2019-03-16T09:43:16.836Z,61.2
2019-03-16T09:44:06.897Z,61.3
2019-03-16T09:44:56.939Z,61.3
2019-03-16T09:45:46.459Z,61.4
2019-03-16T09:46:36.790Z,61.4
2019-03-16T09:47:26.564Z,61.5
2019-03-16T09:48:16.913Z,61.6
2019-03-16T09:49:07.535Z,61.7
2019-03-16T09:49:57.572Z,61.8
2019-03-16T09:51:01.483Z,61.8
2019-03-16T09:51:36.580Z,61.9
2019-03-16T09:52:27.571Z,61.9
2019-03-16T09:53:17.252Z,62
2019-03-16T09:54:07.602Z,62.1
2019-03-16T09:54:56.986Z,62.1
2019-03-16T09:55:47.433Z,62.1
2019-03-16T09:56:37.500Z,62.3
2019-03-16T09:57:27.588Z,62.3
2019-03-16T09:58:30.389Z,62.4
2019-03-16T09:59:07.132Z,62.4
2019-03-16T09:59:58.014Z,62.5
2019-03-16T10:00:47.508Z,62.6
2019-03-16T10:01:37.712Z,62.6
2019-03-16T10:02:28.160Z,62.7
2019-03-16T10:03:17.686Z,62.8
2019-03-16T10:04:08.043Z,62.8
2019-03-16T10:06:35.245Z,62.9
2019-03-16T10:07:25.597Z,63
2019-03-16T10:08:15.674Z,63
2019-03-16T10:09:05.449Z,63.1
2019-03-16T10:09:56.046Z,63.1
2019-03-16T10:10:46.136Z,63.1
2019-03-16T10:11:35.399Z,63.2
2019-03-16T10:12:26.031Z,63.3
2019-03-16T10:13:15.549Z,63.4
2019-03-16T10:14:06.359Z,63.4
2019-03-16T10:14:55.606Z,63.5
2019-03-16T10:15:45.633Z,63.4
2019-03-16T10:16:36.251Z,63.2
2019-03-16T10:17:26.581Z,62.9
2019-03-16T10:18:16.473Z,62.8
2019-03-16T10:19:06.505Z,62.8
2019-03-16T10:19:55.928Z,62.9
2019-03-16T10:20:46.258Z,62.9
2019-03-16T10:21:36.356Z,63
2019-03-16T10:22:26.721Z,63.1
2019-03-16T10:23:16.198Z,63.2
2019-03-16T10:24:06.518Z,63.3
2019-03-16T10:24:56.850Z,63.3
2019-03-16T10:25:46.895Z,63.3
2019-03-16T10:26:39.671Z,63.4
2019-03-16T10:27:26.213Z,63.4
2019-03-16T10:28:16.796Z,63.4
2019-03-16T10:29:06.935Z,63.5
2019-03-16T10:29:57.001Z,63.6
2019-03-16T10:30:46.957Z,63.6
2019-03-16T10:31:37.322Z,63.5
2019-03-16T10:32:26.633Z,63.5
2019-03-16T10:33:17.192Z,63.4
2019-03-16T10:34:07.530Z,63.4
2019-03-16T10:34:57.532Z,63.4
2019-03-16T10:35:47.365Z,63.5
2019-03-16T10:36:37.167Z,63.5
2019-03-16T10:37:27.730Z,63.6
2019-03-16T10:38:17.800Z,63.6
2019-03-16T10:39:07.934Z,63.6
2019-03-16T10:39:57.890Z,63.6
2019-03-16T10:40:47.980Z,63.6
2019-03-16T10:41:37.464Z,63.6
2019-03-16T10:42:28.362Z,63.7
2019-03-16T10:43:17.932Z,63.7
2019-03-16T10:44:08.192Z,63.8
2019-03-16T10:44:58.519Z,63.8
2019-03-16T10:45:48.042Z,63.8
2019-03-16T10:46:38.468Z,63.8
2019-03-16T10:47:28.182Z,63.8
2019-03-16T10:48:18.229Z,63.8
2019-03-16T10:49:08.379Z,63.9
2019-03-16T10:49:58.400Z,63.9
2019-03-16T10:50:48.620Z,63.9
2019-03-16T10:51:38.477Z,63.9
2019-03-16T10:52:28.234Z,64
2019-03-16T10:53:19.131Z,64
2019-03-16T10:54:08.779Z,64
2019-03-16T10:54:59.003Z,64
2019-03-16T10:55:48.751Z,64
2019-03-16T10:56:39.352Z,64.1
2019-03-16T10:57:29.462Z,64
2019-03-16T10:58:19.206Z,63.9
2019-03-16T10:59:08.978Z,64
2019-03-16T10:59:59.371Z,64
2019-03-16T11:00:49.678Z,64
2019-03-16T11:01:39.464Z,64.1
2019-03-16T11:02:29.793Z,64.1
2019-03-16T11:03:19.051Z,64.1
2019-03-16T11:04:08.625Z,64.1
2019-03-16T11:04:58.740Z,64.1
2019-03-16T11:05:49.799Z,64.1
2019-03-16T11:06:39.858Z,64.1
2019-03-16T11:07:28.743Z,64.2
2019-03-16T11:08:19.986Z,64.2
2019-03-16T11:09:10.033Z,64.1
2019-03-16T11:09:58.942Z,63.9
2019-03-16T11:10:49.883Z,63.8
2019-03-16T11:11:40.285Z,63.8
2019-03-16T11:12:30.208Z,63.6
2019-03-16T11:13:19.546Z,63.5
2019-03-16T11:14:09.586Z,63.4
2019-03-16T11:14:59.846Z,63.3
2019-03-16T11:15:50.245Z,63.3
2019-03-16T11:16:40.878Z,63.4
2019-03-16T11:17:44.338Z,63.4
2019-03-16T11:18:20.350Z,63.4
2019-03-16T11:19:10.710Z,63.4
2019-03-16T11:20:00.920Z,63.4